sensor_id;sensor_type;location;lat;lon;timestamp;P1;durP1;ratioP1;P2;durP2;ratioP2
45368;SDS011;51342;55.250;37.668;2023-02-08T00:01:49;13.87;;;6.73;;
45368;SDS011;51342;55.250;37.668;2023-02-08T00:04:21;14.03;;;6.93;;
45368;SDS011;51342;55.250;37.668;2023-02-08T00:06:52;14.63;;;6.63;;
45368;SDS011;51342;55.250;37.668;2023-02-08T00:09:24;13.53;;;6.43;;
45368;SDS011;51342;55.250;37.668;2023-02-08T00:11:55;15.40;;;6.23;;
45368;SDS011;51342;55.250;37.668;2023-02-08T00:14:27;14.30;;;6.17;;
45368;SDS011;51342;55.250;37.668;2023-02-08T00:16:58;15.00;;;6.70;;
45368;SDS011;51342;55.250;37.668;2023-02-08T00:19:30;13.17;;;6.50;;
45368;SDS011;51342;55.250;37.668;2023-02-08T00:22:01;13.37;;;6.07;;
45368;SDS011;51342;55.250;37.668;2023-02-08T00:24:32;13.90;;;6.30;;
45368;SDS011;51342;55.250;37.668;2023-02-08T00:27:04;12.73;;;5.43;;
45368;SDS011;51342;55.250;37.668;2023-02-08T00:29:35;13.93;;;6.07;;
45368;SDS011;51342;55.250;37.668;2023-02-08T00:32:07;10.20;;;5.67;;
45368;SDS011;51342;55.250;37.668;2023-02-08T00:34:40;12.90;;;6.07;;
45368;SDS011;51342;55.250;37.668;2023-02-08T00:37:13;15.57;;;7.07;;
45368;SDS011;51342;55.250;37.668;2023-02-08T00:39:46;16.43;;;6.50;;
45368;SDS011;51342;55.250;37.668;2023-02-08T00:42:17;13.73;;;5.83;;
45368;SDS011;51342;55.250;37.668;2023-02-08T00:44:48;14.90;;;6.87;;
45368;SDS011;51342;55.250;37.668;2023-02-08T00:47:20;16.07;;;7.00;;
45368;SDS011;51342;55.250;37.668;2023-02-08T00:49:52;14.00;;;6.30;;
45368;SDS011;51342;55.250;37.668;2023-02-08T00:52:23;12.00;;;5.60;;
45368;SDS011;51342;55.250;37.668;2023-02-08T00:54:55;13.07;;;6.33;;
45368;SDS011;51342;55.250;37.668;2023-02-08T00:57:26;15.60;;;5.87;;
45368;SDS011;51342;55.250;37.668;2023-02-08T00:59:58;14.03;;;6.23;;
45368;SDS011;51342;55.250;37.668;2023-02-08T01:02:29;14.87;;;6.73;;
45368;SDS011;51342;55.250;37.668;2023-02-08T01:05:03;15.97;;;6.50;;
45368;SDS011;51342;55.250;37.668;2023-02-08T01:07:38;15.57;;;6.90;;
45368;SDS011;51342;55.250;37.668;2023-02-08T01:10:10;12.53;;;7.00;;
45368;SDS011;51342;55.250;37.668;2023-02-08T01:12:42;18.97;;;7.33;;
45368;SDS011;51342;55.250;37.668;2023-02-08T01:15:14;15.43;;;6.73;;
45368;SDS011;51342;55.250;37.668;2023-02-08T01:17:45;17.53;;;7.33;;
45368;SDS011;51342;55.250;37.668;2023-02-08T01:20:17;16.03;;;7.30;;
45368;SDS011;51342;55.250;37.668;2023-02-08T01:22:48;15.30;;;6.90;;
45368;SDS011;51342;55.250;37.668;2023-02-08T01:25:20;19.23;;;8.47;;
45368;SDS011;51342;55.250;37.668;2023-02-08T01:27:52;19.20;;;8.10;;
45368;SDS011;51342;55.250;37.668;2023-02-08T01:30:25;18.30;;;7.67;;
45368;SDS011;51342;55.250;37.668;2023-02-08T01:32:56;17.90;;;8.23;;
45368;SDS011;51342;55.250;37.668;2023-02-08T01:35:29;20.63;;;9.03;;
45368;SDS011;51342;55.250;37.668;2023-02-08T01:38:01;17.83;;;8.67;;
45368;SDS011;51342;55.250;37.668;2023-02-08T01:40:33;14.53;;;7.87;;
45368;SDS011;51342;55.250;37.668;2023-02-08T01:43:08;16.83;;;8.50;;
45368;SDS011;51342;55.250;37.668;2023-02-08T01:45:51;15.65;;;6.95;;
45368;SDS011;51342;55.250;37.668;2023-02-08T01:51:03;17.63;;;7.07;;
45368;SDS011;51342;55.250;37.668;2023-02-08T01:53:39;17.80;;;6.83;;
45368;SDS011;51342;55.250;37.668;2023-02-08T01:56:14;16.47;;;7.87;;
45368;SDS011;51342;55.250;37.668;2023-02-08T01:58:56;14.40;;;6.90;;
45368;SDS011;51342;55.250;37.668;2023-02-08T02:01:31;17.50;;;7.67;;
45368;SDS011;51342;55.250;37.668;2023-02-08T02:04:04;19.33;;;8.37;;
45368;SDS011;51342;55.250;37.668;2023-02-08T02:06:43;19.00;;;8.50;;
45368;SDS011;51342;55.250;37.668;2023-02-08T02:11:49;18.70;;;8.43;;
45368;SDS011;51342;55.250;37.668;2023-02-08T02:14:23;16.27;;;7.63;;
45368;SDS011;51342;55.250;37.668;2023-02-08T02:16:54;14.43;;;7.40;;
45368;SDS011;51342;55.250;37.668;2023-02-08T02:33:47;13.47;;;6.63;;
45368;SDS011;51342;55.250;37.668;2023-02-08T02:39:19;14.93;;;7.03;;
45368;SDS011;51342;55.250;37.668;2023-02-08T02:45:41;15.93;;;7.87;;
45368;SDS011;51342;55.250;37.668;2023-02-08T02:48:29;17.33;;;7.27;;
45368;SDS011;51342;55.250;37.668;2023-02-08T02:51:13;16.07;;;7.17;;
45368;SDS011;51342;55.250;37.668;2023-02-08T02:56:44;13.20;;;7.03;;
45368;SDS011;51342;55.250;37.668;2023-02-08T02:59:18;16.53;;;6.93;;
45368;SDS011;51342;55.250;37.668;2023-02-08T03:01:52;12.77;;;6.67;;
45368;SDS011;51342;55.250;37.668;2023-02-08T03:18:58;11.73;;;5.53;;
45368;SDS011;51342;55.250;37.668;2023-02-08T03:30:52;11.18;;;5.18;;
45368;SDS011;51342;55.250;37.668;2023-02-08T03:33:10;10.40;;;5.17;;
45368;SDS011;51342;55.250;37.668;2023-02-08T03:35:49;10.93;;;5.57;;
45368;SDS011;51342;55.250;37.668;2023-02-08T03:38:40;11.23;;;6.20;;
45368;SDS011;51342;55.250;37.668;2023-02-08T03:41:17;13.03;;;6.70;;
45368;SDS011;51342;55.250;37.668;2023-02-08T03:43:56;11.68;;;5.93;;
45368;SDS011;51342;55.250;37.668;2023-02-08T03:46:36;13.43;;;6.50;;
45368;SDS011;51342;55.250;37.668;2023-02-08T03:49:12;13.77;;;5.90;;
45368;SDS011;51342;55.250;37.668;2023-02-08T03:51:47;13.53;;;7.23;;
45368;SDS011;51342;55.250;37.668;2023-02-08T03:54:20;11.90;;;6.17;;
45368;SDS011;51342;55.250;37.668;2023-02-08T04:02:09;12.47;;;6.63;;
45368;SDS011;51342;55.250;37.668;2023-02-08T04:04:45;16.33;;;6.93;;
45368;SDS011;51342;55.250;37.668;2023-02-08T04:07:19;13.00;;;6.70;;
45368;SDS011;51342;55.250;37.668;2023-02-08T04:09:50;16.43;;;8.23;;
45368;SDS011;51342;55.250;37.668;2023-02-08T04:12:22;16.80;;;7.27;;
45368;SDS011;51342;55.250;37.668;2023-02-08T04:14:53;15.50;;;8.30;;
45368;SDS011;51342;55.250;37.668;2023-02-08T04:17:25;16.67;;;8.20;;
45368;SDS011;51342;55.250;37.668;2023-02-08T04:19:56;18.00;;;8.70;;
45368;SDS011;51342;55.250;37.668;2023-02-08T04:22:28;14.77;;;7.40;;
45368;SDS011;51342;55.250;37.668;2023-02-08T04:24:59;15.53;;;8.00;;
45368;SDS011;51342;55.250;37.668;2023-02-08T04:27:31;18.37;;;7.63;;
45368;SDS011;51342;55.250;37.668;2023-02-08T04:30:03;15.43;;;8.37;;
45368;SDS011;51342;55.250;37.668;2023-02-08T04:32:35;16.37;;;7.80;;
45368;SDS011;51342;55.250;37.668;2023-02-08T04:35:06;16.33;;;8.10;;
45368;SDS011;51342;55.250;37.668;2023-02-08T04:37:38;18.63;;;8.10;;
45368;SDS011;51342;55.250;37.668;2023-02-08T04:40:09;15.07;;;8.03;;
45368;SDS011;51342;55.250;37.668;2023-02-08T04:42:41;15.93;;;8.13;;
45368;SDS011;51342;55.250;37.668;2023-02-08T04:45:13;17.33;;;7.83;;
45368;SDS011;51342;55.250;37.668;2023-02-08T04:47:44;15.23;;;7.50;;
45368;SDS011;51342;55.250;37.668;2023-02-08T04:50:16;17.13;;;8.03;;
45368;SDS011;51342;55.250;37.668;2023-02-08T04:52:47;16.27;;;7.93;;
45368;SDS011;51342;55.250;37.668;2023-02-08T04:55:19;16.43;;;7.17;;
45368;SDS011;51342;55.250;37.668;2023-02-08T04:57:50;17.50;;;8.80;;
45368;SDS011;51342;55.250;37.668;2023-02-08T05:00:22;17.30;;;7.70;;
45368;SDS011;51342;55.250;37.668;2023-02-08T05:02:54;15.57;;;8.57;;
45368;SDS011;51342;55.250;37.668;2023-02-08T05:05:27;17.63;;;8.80;;
45368;SDS011;51342;55.250;37.668;2023-02-08T05:07:58;14.73;;;7.60;;
45368;SDS011;51342;55.250;37.668;2023-02-08T05:10:30;16.50;;;8.53;;
45368;SDS011;51342;55.250;37.668;2023-02-08T05:13:01;18.17;;;8.40;;
45368;SDS011;51342;55.250;37.668;2023-02-08T05:15:33;15.73;;;7.87;;
45368;SDS011;51342;55.250;37.668;2023-02-08T05:18:04;16.30;;;7.73;;
45368;SDS011;51342;55.250;37.668;2023-02-08T05:20:36;16.03;;;7.73;;
45368;SDS011;51342;55.250;37.668;2023-02-08T05:23:07;15.27;;;7.27;;
45368;SDS011;51342;55.250;37.668;2023-02-08T05:25:39;16.93;;;8.37;;
45368;SDS011;51342;55.250;37.668;2023-02-08T05:28:11;15.40;;;7.10;;
45368;SDS011;51342;55.250;37.668;2023-02-08T05:30:43;13.13;;;7.10;;
45368;SDS011;51342;55.250;37.668;2023-02-08T05:33:16;15.97;;;7.13;;
45368;SDS011;51342;55.250;37.668;2023-02-08T05:35:49;17.03;;;7.67;;
45368;SDS011;51342;55.250;37.668;2023-02-08T05:38:22;15.77;;;7.73;;
45368;SDS011;51342;55.250;37.668;2023-02-08T05:40:59;18.10;;;8.50;;
45368;SDS011;51342;55.250;37.668;2023-02-08T05:43:30;16.57;;;7.97;;
45368;SDS011;51342;55.250;37.668;2023-02-08T05:46:02;18.13;;;8.53;;
45368;SDS011;51342;55.250;37.668;2023-02-08T05:48:33;16.40;;;8.03;;
45368;SDS011;51342;55.250;37.668;2023-02-08T05:51:05;18.60;;;8.80;;
45368;SDS011;51342;55.250;37.668;2023-02-08T05:53:36;16.33;;;8.17;;
45368;SDS011;51342;55.250;37.668;2023-02-08T05:56:08;17.27;;;8.43;;
45368;SDS011;51342;55.250;37.668;2023-02-08T05:58:40;18.27;;;8.57;;
45368;SDS011;51342;55.250;37.668;2023-02-08T06:01:12;17.70;;;9.07;;
45368;SDS011;51342;55.250;37.668;2023-02-08T06:03:43;18.13;;;9.27;;
45368;SDS011;51342;55.250;37.668;2023-02-08T06:06:15;17.73;;;7.83;;
45368;SDS011;51342;55.250;37.668;2023-02-08T06:08:46;19.83;;;7.80;;
45368;SDS011;51342;55.250;37.668;2023-02-08T06:11:18;15.47;;;8.00;;
45368;SDS011;51342;55.250;37.668;2023-02-08T06:13:50;18.90;;;9.10;;
45368;SDS011;51342;55.250;37.668;2023-02-08T06:16:22;15.83;;;8.27;;
45368;SDS011;51342;55.250;37.668;2023-02-08T06:18:54;20.50;;;9.27;;
45368;SDS011;51342;55.250;37.668;2023-02-08T06:21:25;17.47;;;8.03;;
45368;SDS011;51342;55.250;37.668;2023-02-08T06:23:58;19.23;;;9.17;;
45368;SDS011;51342;55.250;37.668;2023-02-08T06:26:29;17.97;;;9.60;;
45368;SDS011;51342;55.250;37.668;2023-02-08T06:29:01;17.93;;;8.47;;
45368;SDS011;51342;55.250;37.668;2023-02-08T06:31:32;17.13;;;8.80;;
45368;SDS011;51342;55.250;37.668;2023-02-08T06:34:04;17.87;;;9.00;;
45368;SDS011;51342;55.250;37.668;2023-02-08T06:36:35;18.67;;;9.00;;
45368;SDS011;51342;55.250;37.668;2023-02-08T06:39:07;18.30;;;9.50;;
45368;SDS011;51342;55.250;37.668;2023-02-08T06:41:38;18.30;;;8.90;;
45368;SDS011;51342;55.250;37.668;2023-02-08T06:44:10;20.20;;;8.70;;
45368;SDS011;51342;55.250;37.668;2023-02-08T06:46:41;15.97;;;8.67;;
45368;SDS011;51342;55.250;37.668;2023-02-08T06:49:13;16.47;;;8.67;;
45368;SDS011;51342;55.250;37.668;2023-02-08T06:51:44;18.80;;;8.17;;
45368;SDS011;51342;55.250;37.668;2023-02-08T06:54:16;17.33;;;8.70;;
45368;SDS011;51342;55.250;37.668;2023-02-08T06:56:47;15.30;;;8.10;;
45368;SDS011;51342;55.250;37.668;2023-02-08T06:59:19;17.70;;;8.80;;
45368;SDS011;51342;55.250;37.668;2023-02-08T07:01:50;17.63;;;8.30;;
45368;SDS011;51342;55.250;37.668;2023-02-08T07:04:22;17.73;;;9.40;;
45368;SDS011;51342;55.250;37.668;2023-02-08T07:06:53;17.23;;;8.83;;
45368;SDS011;51342;55.250;37.668;2023-02-08T07:09:24;19.33;;;9.33;;
45368;SDS011;51342;55.250;37.668;2023-02-08T07:11:59;20.63;;;9.60;;
45368;SDS011;51342;55.250;37.668;2023-02-08T07:14:35;19.13;;;8.60;;
45368;SDS011;51342;55.250;37.668;2023-02-08T07:17:09;18.17;;;9.17;;
45368;SDS011;51342;55.250;37.668;2023-02-08T07:19:41;19.63;;;9.90;;
45368;SDS011;51342;55.250;37.668;2023-02-08T07:22:13;21.13;;;11.47;;
45368;SDS011;51342;55.250;37.668;2023-02-08T07:24:44;20.90;;;10.40;;
45368;SDS011;51342;55.250;37.668;2023-02-08T07:27:16;22.23;;;9.80;;
45368;SDS011;51342;55.250;37.668;2023-02-08T07:29:47;19.40;;;9.80;;
45368;SDS011;51342;55.250;37.668;2023-02-08T07:32:19;20.90;;;10.03;;
45368;SDS011;51342;55.250;37.668;2023-02-08T07:34:51;21.00;;;10.63;;
45368;SDS011;51342;55.250;37.668;2023-02-08T07:37:24;23.83;;;9.83;;
45368;SDS011;51342;55.250;37.668;2023-02-08T07:39:56;20.17;;;10.20;;
45368;SDS011;51342;55.250;37.668;2023-02-08T07:42:27;23.13;;;10.47;;
45368;SDS011;51342;55.250;37.668;2023-02-08T07:45:12;22.20;;;10.47;;
45368;SDS011;51342;55.250;37.668;2023-02-08T07:47:44;19.73;;;10.50;;
45368;SDS011;51342;55.250;37.668;2023-02-08T07:50:16;21.13;;;9.93;;
45368;SDS011;51342;55.250;37.668;2023-02-08T07:52:48;21.80;;;10.20;;
45368;SDS011;51342;55.250;37.668;2023-02-08T07:55:19;22.43;;;9.80;;
45368;SDS011;51342;55.250;37.668;2023-02-08T07:57:51;19.27;;;9.63;;
45368;SDS011;51342;55.250;37.668;2023-02-08T08:00:26;21.17;;;9.77;;
45368;SDS011;51342;55.250;37.668;2023-02-08T08:02:57;18.33;;;8.83;;
45368;SDS011;51342;55.250;37.668;2023-02-08T08:05:29;21.10;;;9.50;;
45368;SDS011;51342;55.250;37.668;2023-02-08T08:08:03;20.10;;;10.03;;
45368;SDS011;51342;55.250;37.668;2023-02-08T08:10:35;19.00;;;10.23;;
45368;SDS011;51342;55.250;37.668;2023-02-08T08:13:07;19.63;;;9.57;;
45368;SDS011;51342;55.250;37.668;2023-02-08T08:15:38;18.93;;;9.67;;
45368;SDS011;51342;55.250;37.668;2023-02-08T08:18:10;20.07;;;9.00;;
45368;SDS011;51342;55.250;37.668;2023-02-08T08:20:42;19.57;;;8.50;;
45368;SDS011;51342;55.250;37.668;2023-02-08T08:23:13;19.33;;;8.80;;
45368;SDS011;51342;55.250;37.668;2023-02-08T08:25:46;19.60;;;9.03;;
45368;SDS011;51342;55.250;37.668;2023-02-08T08:28:17;21.77;;;9.47;;
45368;SDS011;51342;55.250;37.668;2023-02-08T08:30:49;18.90;;;9.20;;
45368;SDS011;51342;55.250;37.668;2023-02-08T08:33:20;19.17;;;8.93;;
45368;SDS011;51342;55.250;37.668;2023-02-08T08:35:52;20.50;;;10.40;;
45368;SDS011;51342;55.250;37.668;2023-02-08T08:38:23;19.20;;;11.00;;
45368;SDS011;51342;55.250;37.668;2023-02-08T08:40:56;19.43;;;10.10;;
45368;SDS011;51342;55.250;37.668;2023-02-08T08:43:27;20.80;;;9.10;;
45368;SDS011;51342;55.250;37.668;2023-02-08T08:45:59;19.40;;;9.70;;
45368;SDS011;51342;55.250;37.668;2023-02-08T08:48:32;19.63;;;8.93;;
45368;SDS011;51342;55.250;37.668;2023-02-08T08:51:04;17.80;;;9.23;;
45368;SDS011;51342;55.250;37.668;2023-02-08T08:53:36;17.57;;;9.00;;
45368;SDS011;51342;55.250;37.668;2023-02-08T08:56:08;17.40;;;8.93;;
45368;SDS011;51342;55.250;37.668;2023-02-08T08:58:39;19.73;;;9.57;;
45368;SDS011;51342;55.250;37.668;2023-02-08T09:01:13;16.57;;;8.20;;
45368;SDS011;51342;55.250;37.668;2023-02-08T09:03:44;17.37;;;8.67;;
45368;SDS011;51342;55.250;37.668;2023-02-08T09:06:16;18.77;;;9.33;;
45368;SDS011;51342;55.250;37.668;2023-02-08T09:08:47;16.10;;;8.20;;
45368;SDS011;51342;55.250;37.668;2023-02-08T09:11:19;18.33;;;9.27;;
45368;SDS011;51342;55.250;37.668;2023-02-08T09:13:50;18.63;;;8.37;;
45368;SDS011;51342;55.250;37.668;2023-02-08T09:16:23;15.93;;;8.53;;
45368;SDS011;51342;55.250;37.668;2023-02-08T09:18:55;16.73;;;8.23;;
45368;SDS011;51342;55.250;37.668;2023-02-08T09:21:26;15.90;;;7.93;;
45368;SDS011;51342;55.250;37.668;2023-02-08T09:23:59;16.13;;;8.17;;
45368;SDS011;51342;55.250;37.668;2023-02-08T09:26:31;17.90;;;7.90;;
45368;SDS011;51342;55.250;37.668;2023-02-08T09:29:04;15.93;;;7.93;;
45368;SDS011;51342;55.250;37.668;2023-02-08T09:31:36;15.47;;;8.03;;
45368;SDS011;51342;55.250;37.668;2023-02-08T09:34:08;14.97;;;7.40;;
45368;SDS011;51342;55.250;37.668;2023-02-08T09:36:40;14.07;;;8.13;;
45368;SDS011;51342;55.250;37.668;2023-02-08T09:39:21;13.07;;;7.30;;
45368;SDS011;51342;55.250;37.668;2023-02-08T09:45:23;13.60;;;7.17;;
45368;SDS011;51342;55.250;37.668;2023-02-08T09:50:57;13.60;;;7.23;;
45368;SDS011;51342;55.250;37.668;2023-02-08T09:53:41;13.60;;;6.63;;
45368;SDS011;51342;55.250;37.668;2023-02-08T09:56:21;16.37;;;7.43;;
45368;SDS011;51342;55.250;37.668;2023-02-08T09:58:59;13.50;;;7.10;;
45368;SDS011;51342;55.250;37.668;2023-02-08T10:01:33;12.27;;;6.73;;
45368;SDS011;51342;55.250;37.668;2023-02-08T10:06:52;10.90;;;6.20;;
45368;SDS011;51342;55.250;37.668;2023-02-08T10:09:24;15.30;;;7.40;;
45368;SDS011;51342;55.250;37.668;2023-02-08T10:14:58;11.83;;;6.13;;
45368;SDS011;51342;55.250;37.668;2023-02-08T10:17:49;12.57;;;6.27;;
45368;SDS011;51342;55.250;37.668;2023-02-08T10:25:57;12.43;;;5.27;;
45368;SDS011;51342;55.250;37.668;2023-02-08T10:28:47;10.53;;;5.63;;
45368;SDS011;51342;55.250;37.668;2023-02-08T10:34:36;10.87;;;5.37;;
45368;SDS011;51342;55.250;37.668;2023-02-08T10:37:31;11.00;;;5.10;;
45368;SDS011;51342;55.250;37.668;2023-02-08T10:42:56;10.47;;;5.00;;
45368;SDS011;51342;55.250;37.668;2023-02-08T10:45:38;7.87;;;4.60;;
45368;SDS011;51342;55.250;37.668;2023-02-08T10:48:21;10.17;;;5.27;;
45368;SDS011;51342;55.250;37.668;2023-02-08T10:51:22;9.53;;;4.43;;
45368;SDS011;51342;55.250;37.668;2023-02-08T10:53:53;9.77;;;5.20;;
45368;SDS011;51342;55.250;37.668;2023-02-08T10:59:08;9.32;;;4.88;;
45368;SDS011;51342;55.250;37.668;2023-02-08T11:02:14;10.23;;;4.57;;
45368;SDS011;51342;55.250;37.668;2023-02-08T11:04:57;9.50;;;4.60;;
45368;SDS011;51342;55.250;37.668;2023-02-08T11:07:32;9.17;;;4.67;;
45368;SDS011;51342;55.250;37.668;2023-02-08T11:18:35;8.80;;;4.90;;
45368;SDS011;51342;55.250;37.668;2023-02-08T11:21:25;10.93;;;5.20;;
45368;SDS011;51342;55.250;37.668;2023-02-08T11:24:21;8.47;;;4.30;;
45368;SDS011;51342;55.250;37.668;2023-02-08T11:32:41;10.13;;;5.47;;
45368;SDS011;51342;55.250;37.668;2023-02-08T11:35:21;8.57;;;5.10;;
45368;SDS011;51342;55.250;37.668;2023-02-08T11:37:56;9.07;;;5.60;;
45368;SDS011;51342;55.250;37.668;2023-02-08T11:40:35;10.97;;;4.93;;
45368;SDS011;51342;55.250;37.668;2023-02-08T11:43:19;9.80;;;5.23;;
45368;SDS011;51342;55.250;37.668;2023-02-08T11:46:02;10.43;;;4.80;;
45368;SDS011;51342;55.250;37.668;2023-02-08T11:48:47;9.73;;;4.90;;
45368;SDS011;51342;55.250;37.668;2023-02-08T11:51:31;8.83;;;5.13;;
45368;SDS011;51342;55.250;37.668;2023-02-08T11:54:05;7.77;;;4.97;;
45368;SDS011;51342;55.250;37.668;2023-02-08T11:57:00;8.90;;;4.83;;
45368;SDS011;51342;55.250;37.668;2023-02-08T11:59:33;10.75;;;5.57;;
45368;SDS011;51342;55.250;37.668;2023-02-08T12:05:01;8.50;;;3.90;;
45368;SDS011;51342;55.250;37.668;2023-02-08T12:07:55;9.10;;;5.20;;
45368;SDS011;51342;55.250;37.668;2023-02-08T12:10:45;10.13;;;5.20;;
45368;SDS011;51342;55.250;37.668;2023-02-08T12:13:35;10.43;;;5.40;;
45368;SDS011;51342;55.250;37.668;2023-02-08T12:27:56;9.23;;;5.27;;
45368;SDS011;51342;55.250;37.668;2023-02-08T12:30:46;10.03;;;5.63;;
45368;SDS011;51342;55.250;37.668;2023-02-08T12:33:33;9.07;;;4.87;;
45368;SDS011;51342;55.250;37.668;2023-02-08T12:36:23;9.13;;;5.27;;
45368;SDS011;51342;55.250;37.668;2023-02-08T12:39:07;9.80;;;4.87;;
45368;SDS011;51342;55.250;37.668;2023-02-08T12:42:26;10.37;;;5.43;;
45368;SDS011;51342;55.250;37.668;2023-02-08T12:51:26;10.23;;;5.60;;
45368;SDS011;51342;55.250;37.668;2023-02-08T12:54:02;12.77;;;6.00;;
45368;SDS011;51342;55.250;37.668;2023-02-08T12:56:40;11.63;;;6.07;;
45368;SDS011;51342;55.250;37.668;2023-02-08T12:59:20;13.70;;;6.53;;
45368;SDS011;51342;55.250;37.668;2023-02-08T13:01:56;13.77;;;6.40;;
45368;SDS011;51342;55.250;37.668;2023-02-08T13:04:44;13.27;;;6.80;;
45368;SDS011;51342;55.250;37.668;2023-02-08T13:07:23;14.37;;;6.53;;
45368;SDS011;51342;55.250;37.668;2023-02-08T13:09:59;12.68;;;6.13;;
45368;SDS011;51342;55.250;37.668;2023-02-08T13:12:44;13.80;;;6.27;;
45368;SDS011;51342;55.250;37.668;2023-02-08T13:15:20;15.07;;;6.63;;
45368;SDS011;51342;55.250;37.668;2023-02-08T13:17:58;12.33;;;5.97;;
45368;SDS011;51342;55.250;37.668;2023-02-08T13:20:42;12.93;;;6.85;;
45368;SDS011;51342;55.250;37.668;2023-02-08T13:26:02;13.50;;;6.40;;
45368;SDS011;51342;55.250;37.668;2023-02-08T13:28:38;12.10;;;7.10;;
45368;SDS011;51342;55.250;37.668;2023-02-08T13:31:12;12.73;;;6.13;;
45368;SDS011;51342;55.250;37.668;2023-02-08T13:33:50;10.63;;;5.47;;
45368;SDS011;51342;55.250;37.668;2023-02-08T13:36:28;9.25;;;5.32;;
45368;SDS011;51342;55.250;37.668;2023-02-08T13:39:03;10.80;;;5.77;;
45368;SDS011;51342;55.250;37.668;2023-02-08T13:41:38;11.33;;;5.90;;
45368;SDS011;51342;55.250;37.668;2023-02-08T13:44:33;10.57;;;5.57;;
45368;SDS011;51342;55.250;37.668;2023-02-08T13:47:07;10.93;;;5.63;;
45368;SDS011;51342;55.250;37.668;2023-02-08T13:49:58;10.23;;;5.67;;
45368;SDS011;51342;55.250;37.668;2023-02-08T13:52:56;11.63;;;5.03;;
45368;SDS011;51342;55.250;37.668;2023-02-08T13:58:04;9.37;;;5.27;;
45368;SDS011;51342;55.250;37.668;2023-02-08T14:01:28;12.07;;;5.87;;
45368;SDS011;51342;55.250;37.668;2023-02-08T14:04:32;13.80;;;6.30;;
45368;SDS011;51342;55.250;37.668;2023-02-08T14:11:58;10.47;;;5.80;;
45368;SDS011;51342;55.250;37.668;2023-02-08T14:14:35;10.47;;;5.70;;
45368;SDS011;51342;55.250;37.668;2023-02-08T14:17:18;11.07;;;5.50;;
45368;SDS011;51342;55.250;37.668;2023-02-08T14:19:54;12.20;;;6.13;;
45368;SDS011;51342;55.250;37.668;2023-02-08T14:22:34;10.13;;;5.27;;
45368;SDS011;51342;55.250;37.668;2023-02-08T14:27:54;10.47;;;6.07;;
45368;SDS011;51342;55.250;37.668;2023-02-08T14:30:36;11.00;;;5.53;;
45368;SDS011;51342;55.250;37.668;2023-02-08T14:33:09;11.47;;;5.93;;
45368;SDS011;51342;55.250;37.668;2023-02-08T14:35:51;11.82;;;5.95;;
45368;SDS011;51342;55.250;37.668;2023-02-08T14:41:42;11.63;;;6.10;;
45368;SDS011;51342;55.250;37.668;2023-02-08T14:50:15;14.03;;;6.40;;
45368;SDS011;51342;55.250;37.668;2023-02-08T14:53:00;13.53;;;7.67;;
45368;SDS011;51342;55.250;37.668;2023-02-08T14:55:38;11.85;;;5.93;;
45368;SDS011;51342;55.250;37.668;2023-02-08T14:58:20;12.07;;;6.00;;
45368;SDS011;51342;55.250;37.668;2023-02-08T15:01:13;11.97;;;6.07;;
45368;SDS011;51342;55.250;37.668;2023-02-08T15:03:49;10.40;;;6.33;;
45368;SDS011;51342;55.250;37.668;2023-02-08T15:06:40;13.77;;;6.70;;
45368;SDS011;51342;55.250;37.668;2023-02-08T15:09:30;12.97;;;7.10;;
45368;SDS011;51342;55.250;37.668;2023-02-08T15:12:42;10.83;;;6.40;;
45368;SDS011;51342;55.250;37.668;2023-02-08T15:15:06;13.97;;;6.37;;
45368;SDS011;51342;55.250;37.668;2023-02-08T15:17:52;13.40;;;7.05;;
45368;SDS011;51342;55.250;37.668;2023-02-08T15:20:26;13.00;;;7.43;;
45368;SDS011;51342;55.250;37.668;2023-02-08T15:23:01;11.67;;;6.43;;
45368;SDS011;51342;55.250;37.668;2023-02-08T15:25:57;13.70;;;6.23;;
45368;SDS011;51342;55.250;37.668;2023-02-08T15:28:32;13.43;;;6.60;;
45368;SDS011;51342;55.250;37.668;2023-02-08T15:31:09;15.57;;;7.13;;
45368;SDS011;51342;55.250;37.668;2023-02-08T15:33:46;14.50;;;7.17;;
45368;SDS011;51342;55.250;37.668;2023-02-08T15:36:25;13.13;;;6.47;;
45368;SDS011;51342;55.250;37.668;2023-02-08T15:39:08;14.90;;;7.63;;
45368;SDS011;51342;55.250;37.668;2023-02-08T15:41:49;11.87;;;6.43;;
45368;SDS011;51342;55.250;37.668;2023-02-08T15:44:24;13.47;;;6.57;;
45368;SDS011;51342;55.250;37.668;2023-02-08T15:47:04;13.60;;;6.80;;
45368;SDS011;51342;55.250;37.668;2023-02-08T15:49:40;13.93;;;6.53;;
45368;SDS011;51342;55.250;37.668;2023-02-08T15:52:15;14.37;;;7.33;;
45368;SDS011;51342;55.250;37.668;2023-02-08T15:54:48;14.87;;;7.60;;
45368;SDS011;51342;55.250;37.668;2023-02-08T16:00:18;15.57;;;7.17;;
45368;SDS011;51342;55.250;37.668;2023-02-08T16:02:52;15.75;;;6.80;;
45368;SDS011;51342;55.250;37.668;2023-02-08T16:05:27;13.27;;;6.20;;
45368;SDS011;51342;55.250;37.668;2023-02-08T16:08:01;13.30;;;6.97;;
45368;SDS011;51342;55.250;37.668;2023-02-08T16:10:37;13.73;;;6.93;;
45368;SDS011;51342;55.250;37.668;2023-02-08T16:13:15;15.33;;;7.20;;
45368;SDS011;51342;55.250;37.668;2023-02-08T16:16:16;15.23;;;6.77;;
45368;SDS011;51342;55.250;37.668;2023-02-08T16:19:00;13.70;;;6.70;;
45368;SDS011;51342;55.250;37.668;2023-02-08T16:21:34;13.20;;;6.83;;
45368;SDS011;51342;55.250;37.668;2023-02-08T16:29:19;12.97;;;7.43;;
45368;SDS011;51342;55.250;37.668;2023-02-08T16:31:59;15.27;;;7.00;;
45368;SDS011;51342;55.250;37.668;2023-02-08T16:34:33;18.47;;;8.20;;
45368;SDS011;51342;55.250;37.668;2023-02-08T16:37:21;15.97;;;7.60;;
45368;SDS011;51342;55.250;37.668;2023-02-08T16:39:59;16.27;;;7.07;;
45368;SDS011;51342;55.250;37.668;2023-02-08T16:45:13;13.30;;;7.00;;
45368;SDS011;51342;55.250;37.668;2023-02-08T16:47:48;14.23;;;7.10;;
45368;SDS011;51342;55.250;37.668;2023-02-08T16:50:25;15.45;;;6.78;;
45368;SDS011;51342;55.250;37.668;2023-02-08T16:53:01;15.70;;;7.20;;
45368;SDS011;51342;55.250;37.668;2023-02-08T16:55:34;16.17;;;7.17;;
45368;SDS011;51342;55.250;37.668;2023-02-08T16:58:11;13.63;;;6.83;;
45368;SDS011;51342;55.250;37.668;2023-02-08T17:00:45;12.43;;;6.55;;
45368;SDS011;51342;55.250;37.668;2023-02-08T17:03:16;12.13;;;6.80;;
45368;SDS011;51342;55.250;37.668;2023-02-08T17:05:48;12.63;;;6.63;;
45368;SDS011;51342;55.250;37.668;2023-02-08T17:08:20;11.57;;;6.53;;
45368;SDS011;51342;55.250;37.668;2023-02-08T17:10:52;15.67;;;7.00;;
45368;SDS011;51342;55.250;37.668;2023-02-08T17:13:28;16.13;;;7.27;;
45368;SDS011;51342;55.250;37.668;2023-02-08T17:16:00;13.27;;;7.03;;
45368;SDS011;51342;55.250;37.668;2023-02-08T17:18:31;12.87;;;6.90;;
45368;SDS011;51342;55.250;37.668;2023-02-08T17:21:03;13.63;;;6.70;;
45368;SDS011;51342;55.250;37.668;2023-02-08T17:23:35;13.43;;;6.77;;
45368;SDS011;51342;55.250;37.668;2023-02-08T17:26:25;13.93;;;6.67;;
45368;SDS011;51342;55.250;37.668;2023-02-08T17:28:58;12.87;;;6.37;;
45368;SDS011;51342;55.250;37.668;2023-02-08T17:31:30;15.10;;;7.47;;
45368;SDS011;51342;55.250;37.668;2023-02-08T17:34:01;13.00;;;7.40;;
45368;SDS011;51342;55.250;37.668;2023-02-08T17:36:36;13.70;;;6.67;;
45368;SDS011;51342;55.250;37.668;2023-02-08T17:39:07;13.13;;;7.27;;
45368;SDS011;51342;55.250;37.668;2023-02-08T17:41:40;13.87;;;6.77;;
45368;SDS011;51342;55.250;37.668;2023-02-08T17:44:11;16.63;;;8.10;;